Birmingham, AL (35207)

5:16 AM CST on February 09, 2016 (GMT -0600)
Nucor Steel Birmingham | | Change Station
CLOSE
Current Station
Personal Weather Station
Location: Birmingham, AL
Elevation: 562 ft
Nearby Weather Stations

Elev 562 ft 33.55 °N, 86.81 °W | Updated 15 seconds ago

Overcast
Overcast
33.6 °F
Feels Like 27 °F
N
7.0
Wind Variable Wind from WSW
Gusts 12.0 mph

Today
High -- | Low -- °F
--% Chance of Precip.
Yesterday
High -- | Low -- °F
Precip. -- in
Pressure 29.93 in
Visibility 10.0 miles
Clouds Overcast 5000 ft
Windchill 27 °F
Dew Point 20 °F
Humidity 58%
Rainfall 0.00 in
Snow Depth Not available.
6:37 AM 5:25 PM
New Moon, 1% visible
METAR KBHM 091053Z 26008KT 10SM OVC050 01/M07 A2992 RMK AO2 SLP133 T00111072
Pressure 29.93 in
Visibility 10.0 miles
Clouds Overcast 5000 ft
Windchill 27 °F
Dew Point 20 °F
Humidity 58%
Rainfall 0.00 in
Snow Depth Not available.
6:37 AM 5:25 PM
New Moon, 1% visible
METAR KBHM 091053Z 26008KT 10SM OVC050 01/M07 A2992 RMK AO2 SLP133 T00111072

10-Day Weather Forecast

Almanac

Astronomy

Feb. 09, 2016 Rise Set
Actual Time
Civil Twilight
Nautical Twilight
Astronomical Twilight
Moon
Length of Visible Light
Length of Day
Tomorrow will be .
, % of the Moon is Illuminated

Today's Extremes

State Highs State Lows

Community

WunderPhotos

Upload Photos

1,891,565 photos uploaded!

WunderBlog® & News

Nearby

Air Quality

  Air Quality AQ Index Pollutant
Not available.

Snow Depth

Station Depth Elevation

Earthquake Activity

City Distance Mag. Time & Date
Minimum magnitude displayed is 2.5.

Coastal Water Temperatures

Place Temperature

Stations

Nearby Weather Stations

Station Location Temp. Windchill Dew Point Humidity Wind Precip. Elev Updated Type
                   

Watches & Warnings

There are currently no watches in effect.